Kanyo Maru — JG5144 — position and weather

sailwx.info

Track history (hours):
 
Tides and Currents Weather Stations Pressure Air Temp Water Temp Dewpoint Dewpoint Depression Visibility Wind Speed Wind Dir Waves Ship Positions

Kanyo Maru

Last reported at 2018-Jul-08 11:30 UTC. Time now 2018-Jul-17 15:00 UTC.
Position N 34°56' E 139°43'.
Warning: this ship's position is 9 days out of date.

Length 115 m; draft 6.7 m.

Type: Cargo ship. MMSI: 431300018.

Date/timePositionNaut miles runAvg speedWind from/ knotsBaromVisibWave heightAir tempDewpointWater temp
2018-Jul-08 11:30N 34°56' E 139°43'611.7
2018-Jul-08 11:01N 35°01' E 139°42'611.1
2018-Jul-08 10:29N 35°07' E 139°44'510.9
2018-Jul-08 10:00N 35°12' E 139°46'510.7
2018-Jul-08 09:30N 35°17' E 139°45'510.7
2018-Jul-08 09:00N 35°22' E 139°42'510.4
2018-Jul-08 08:30N 35°27' E 139°45'4 7.8
2018-Jul-08 08:00N 35°30' E 139°47'2 4.5
2018-Jul-08 07:30N 35°31' E 139°44'0 0.1
2018-Jul-08 06:55N 35°31' E 139°44'0 0.0
2018-Jul-08 06:25N 35°31' E 139°44'0 0.0
2018-Jul-08 05:55N 35°31' E 139°44'0 0.0
2018-Jul-08 05:25N 35°31' E 139°44'0 0.0
2018-Jul-08 04:58N 35°31' E 139°44'0 0.0
2018-Jul-08 04:28N 35°31' E 139°44'0 0.0
2018-Jul-08 03:58N 35°31' E 139°44'0 0.0
2018-Jul-08 03:28N 35°31' E 139°44'0 0.0
2018-Jul-08 02:58N 35°31' E 139°44'0 0.0
2018-Jul-08 02:28N 35°31' E 139°44'0 0.0
2018-Jul-08 01:55N 35°31' E 139°44'0 0.0
2018-Jul-08 01:28N 35°31' E 139°44'0 0.0
2018-Jul-08 00:58N 35°31' E 139°44'0 0.0
2018-Jul-08 00:28N 35°31' E 139°44'0 0.0
2018-Jul-07 23:58N 35°31' E 139°44'0 0.1
2018-Jul-07 23:23N 35°31' E 139°44'0 1.3
2018-Jul-07 23:00N 35°30' E 139°44'3 5.6
2018-Jul-07 22:30N 35°28' E 139°42'4 7.0
2018-Jul-07 22:00N 35°25' E 139°45'2 3.8
2018-Jul-07 21:28N 35°23' E 139°44'0 0.0
2018-Jul-07 20:58N 35°23' E 139°44'0 0.1
2018-Jul-07 20:28N 35°23' E 139°44'0 0.1
2018-Jul-07 19:58N 35°23' E 139°44'0 0.0
2018-Jul-07 19:28N 35°23' E 139°44'0 0.0
2018-Jul-07 18:58N 35°23' E 139°44'0 0.0
2018-Jul-07 18:28N 35°23' E 139°44'0 0.0
2018-Jul-07 17:58N 35°23' E 139°44'0 0.0
2018-Jul-07 17:28N 35°23' E 139°44'0 0.0
2018-Jul-07 16:58N 35°23' E 139°44'0 0.0
2018-Jul-07 16:28N 35°23' E 139°44'0 0.0
2018-Jul-07 15:58N 35°23' E 139°44'0 0.0
2018-Jul-07 15:28N 35°23' E 139°44'0 0.0
2018-Jul-07 14:58N 35°23' E 139°44'0 0.0
2018-Jul-07 14:28N 35°23' E 139°44'0 0.0
2018-Jul-07 13:58N 35°23' E 139°44'0 0.0
2018-Jul-07 13:28N 35°23' E 139°44'0 0.1
2018-Jul-07 12:58N 35°23' E 139°44'0 0.0
2018-Jul-07 12:28N 35°23' E 139°44'0 0.0
2018-Jul-07 11:58N 35°23' E 139°44'0 0.1
2018-Jul-07 11:28N 35°23' E 139°44'0 0.0
2018-Jul-07 10:58N 35°23' E 139°44'0 0.0
2018-Jul-07 10:28N 35°23' E 139°44'0 0.0
2018-Jul-07 09:58N 35°23' E 139°44'0 0.0
2018-Jul-07 09:28N 35°23' E 139°44'0 0.0
2018-Jul-07 08:58N 35°23' E 139°44'0 0.1
2018-Jul-07 08:31N 35°23' E 139°44'4 8.2
2018-Jul-07 08:00N 35°26' E 139°46'4 7.7
2018-Jul-07 07:30N 35°30' E 139°47'2 4.3
2018-Jul-07 07:00N 35°32' E 139°45'0 0.5
2018-Jul-07 06:28N 35°32' E 139°45'0 0.0
2018-Jul-07 05:55N 35°32' E 139°45'0 0.0
2018-Jul-07 05:28N 35°32' E 139°45'0 0.0
2018-Jul-07 04:58N 35°32' E 139°45'0 0.0
2018-Jul-07 04:28N 35°32' E 139°45'0 0.0
2018-Jul-07 03:58N 35°31' E 139°45'0 0.0
2018-Jul-07 03:28N 35°32' E 139°45'0 0.0
2018-Jul-07 02:58N 35°31' E 139°45'0 0.0
2018-Jul-07 02:28N 35°32' E 139°45'0 0.0
2018-Jul-07 01:58N 35°32' E 139°45'0 0.0
2018-Jul-07 01:28N 35°32' E 139°45'0 0.0
2018-Jul-07 00:58N 35°32' E 139°45'0 0.5
2018-Jul-07 00:30N 35°32' E 139°45'1 2.3
2018-Jul-07 00:00N 35°31' E 139°46'4 8.1
2018-Jul-06 23:30N 35°29' E 139°42'5 9.7
2018-Jul-06 23:00N 35°24' E 139°44'2 4.5
2018-Jul-06 22:30N 35°22' E 139°44'0 0.0
2018-Jul-06 21:57N 35°22' E 139°44'1 1.2
2018-Jul-06 21:30N 35°21' E 139°44'510.4
2018-Jul-06 21:00N 35°16' E 139°46'611.3
2018-Jul-06 20:30N 35°11' E 139°46'612.0
2018-Jul-06 20:00N 35°05' E 139°44'611.9
2018-Jul-06 19:30N 34°59' E 139°43'8 9.1
2018-Jul-06 18:39N 34°52' E 139°47'  
Track history (hours):
 
Tides and Currents Weather Stations Pressure Air Temp Water Temp Dewpoint Dewpoint Depression Visibility Wind Speed Wind Dir Waves Ship Positions

Kanyo Maru

Last reported at 2018-Jul-08 11:30 UTC. Time now 2018-Jul-17 15:00 UTC.
Position N 34°56' E 139°43'.
Warning: this ship's position is 9 days out of date.

Length 115 m; draft 6.7 m.

Type: Cargo ship. MMSI: 431300018.

Date/timePositionNaut miles runAvg speedWind from/ knotsBaromVisibWave heightAir tempDewpointWater temp
2018-Jul-08 11:30N 34°56' E 139°43'611.7
2018-Jul-08 11:01N 35°01' E 139°42'611.1
2018-Jul-08 10:29N 35°07' E 139°44'510.9
2018-Jul-08 10:00N 35°12' E 139°46'510.7
2018-Jul-08 09:30N 35°17' E 139°45'510.7
2018-Jul-08 09:00N 35°22' E 139°42'510.4
2018-Jul-08 08:30N 35°27' E 139°45'4 7.8
2018-Jul-08 08:00N 35°30' E 139°47'2 4.5
2018-Jul-08 07:30N 35°31' E 139°44'0 0.1
2018-Jul-08 06:55N 35°31' E 139°44'0 0.0
2018-Jul-08 06:25N 35°31' E 139°44'0 0.0
2018-Jul-08 05:55N 35°31' E 139°44'0 0.0
2018-Jul-08 05:25N 35°31' E 139°44'0 0.0
2018-Jul-08 04:58N 35°31' E 139°44'0 0.0
2018-Jul-08 04:28N 35°31' E 139°44'0 0.0
2018-Jul-08 03:58N 35°31' E 139°44'0 0.0
2018-Jul-08 03:28N 35°31' E 139°44'0 0.0
2018-Jul-08 02:58N 35°31' E 139°44'0 0.0
2018-Jul-08 02:28N 35°31' E 139°44'0 0.0
2018-Jul-08 01:55N 35°31' E 139°44'0 0.0
2018-Jul-08 01:28N 35°31' E 139°44'0 0.0
2018-Jul-08 00:58N 35°31' E 139°44'0 0.0
2018-Jul-08 00:28N 35°31' E 139°44'0 0.0
2018-Jul-07 23:58N 35°31' E 139°44'0 0.1
2018-Jul-07 23:23N 35°31' E 139°44'0 1.3
2018-Jul-07 23:00N 35°30' E 139°44'3 5.6
2018-Jul-07 22:30N 35°28' E 139°42'4 7.0
2018-Jul-07 22:00N 35°25' E 139°45'2 3.8
2018-Jul-07 21:28N 35°23' E 139°44'0 0.0
2018-Jul-07 20:58N 35°23' E 139°44'0 0.1
2018-Jul-07 20:28N 35°23' E 139°44'0 0.1
2018-Jul-07 19:58N 35°23' E 139°44'0 0.0
2018-Jul-07 19:28N 35°23' E 139°44'0 0.0
2018-Jul-07 18:58N 35°23' E 139°44'0 0.0
2018-Jul-07 18:28N 35°23' E 139°44'0 0.0
2018-Jul-07 17:58N 35°23' E 139°44'0 0.0
2018-Jul-07 17:28N 35°23' E 139°44'0 0.0
2018-Jul-07 16:58N 35°23' E 139°44'0 0.0
2018-Jul-07 16:28N 35°23' E 139°44'0 0.0
2018-Jul-07 15:58N 35°23' E 139°44'0 0.0
2018-Jul-07 15:28N 35°23' E 139°44'0 0.0
2018-Jul-07 14:58N 35°23' E 139°44'0 0.0
2018-Jul-07 14:28N 35°23' E 139°44'0 0.0
2018-Jul-07 13:58N 35°23' E 139°44'0 0.0
2018-Jul-07 13:28N 35°23' E 139°44'0 0.1
2018-Jul-07 12:58N 35°23' E 139°44'0 0.0
2018-Jul-07 12:28N 35°23' E 139°44'0 0.0
2018-Jul-07 11:58N 35°23' E 139°44'0 0.1
2018-Jul-07 11:28N 35°23' E 139°44'0 0.0
2018-Jul-07 10:58N 35°23' E 139°44'0 0.0
2018-Jul-07 10:28N 35°23' E 139°44'0 0.0
2018-Jul-07 09:58N 35°23' E 139°44'0 0.0
2018-Jul-07 09:28N 35°23' E 139°44'0 0.0
2018-Jul-07 08:58N 35°23' E 139°44'0 0.1
2018-Jul-07 08:31N 35°23' E 139°44'4 8.2
2018-Jul-07 08:00N 35°26' E 139°46'4 7.7
2018-Jul-07 07:30N 35°30' E 139°47'2 4.3
2018-Jul-07 07:00N 35°32' E 139°45'0 0.5
2018-Jul-07 06:28N 35°32' E 139°45'0 0.0
2018-Jul-07 05:55N 35°32' E 139°45'0 0.0
2018-Jul-07 05:28N 35°32' E 139°45'0 0.0
2018-Jul-07 04:58N 35°32' E 139°45'0 0.0
2018-Jul-07 04:28N 35°32' E 139°45'0 0.0
2018-Jul-07 03:58N 35°31' E 139°45'0 0.0
2018-Jul-07 03:28N 35°32' E 139°45'0 0.0
2018-Jul-07 02:58N 35°31' E 139°45'0 0.0
2018-Jul-07 02:28N 35°32' E 139°45'0 0.0
2018-Jul-07 01:58N 35°32' E 139°45'0 0.0
2018-Jul-07 01:28N 35°32' E 139°45'0 0.0
2018-Jul-07 00:58N 35°32' E 139°45'0 0.5
2018-Jul-07 00:30N 35°32' E 139°45'1 2.3
2018-Jul-07 00:00N 35°31' E 139°46'4 8.1
2018-Jul-06 23:30N 35°29' E 139°42'5 9.7
2018-Jul-06 23:00N 35°24' E 139°44'2 4.5
2018-Jul-06 22:30N 35°22' E 139°44'0 0.0
2018-Jul-06 21:57N 35°22' E 139°44'1 1.2
2018-Jul-06 21:30N 35°21' E 139°44'510.4
2018-Jul-06 21:00N 35°16' E 139°46'611.3
2018-Jul-06 20:30N 35°11' E 139°46'612.0
2018-Jul-06 20:00N 35°05' E 139°44'611.9
2018-Jul-06 19:30N 34°59' E 139°43'8 9.1
2018-Jul-06 18:39N 34°52' E 139°47'  

Dump ship's entire track history